sensor_id;sensor_type;location;lat;lon;timestamp;P1;durP1;ratioP1;P2;durP2;ratioP2
69890;SDS011;57170;43.964;21.262;2023-03-01T00:00:21;87.60;;;52.08;;
69890;SDS011;57170;43.964;21.262;2023-03-01T00:02:47;95.07;;;54.63;;
69890;SDS011;57170;43.964;21.262;2023-03-01T00:05:13;90.85;;;51.78;;
69890;SDS011;57170;43.964;21.262;2023-03-01T00:07:40;85.90;;;51.40;;
69890;SDS011;57170;43.964;21.262;2023-03-01T00:10:06;86.65;;;50.78;;
69890;SDS011;57170;43.964;21.262;2023-03-01T00:12:32;83.75;;;48.72;;
69890;SDS011;57170;43.964;21.262;2023-03-01T00:14:58;83.80;;;54.42;;
69890;SDS011;57170;43.964;21.262;2023-03-01T00:17:24;90.15;;;56.85;;
69890;SDS011;57170;43.964;21.262;2023-03-01T00:19:50;88.57;;;53.50;;
69890;SDS011;57170;43.964;21.262;2023-03-01T00:22:16;82.57;;;49.08;;
69890;SDS011;57170;43.964;21.262;2023-03-01T00:24:42;85.68;;;52.38;;
69890;SDS011;57170;43.964;21.262;2023-03-01T00:27:08;80.78;;;44.67;;
69890;SDS011;57170;43.964;21.262;2023-03-01T00:29:34;85.25;;;51.10;;
69890;SDS011;57170;43.964;21.262;2023-03-01T00:32:00;89.78;;;49.53;;
69890;SDS011;57170;43.964;21.262;2023-03-01T00:34:26;77.65;;;43.25;;
69890;SDS011;57170;43.964;21.262;2023-03-01T00:36:52;72.57;;;43.40;;
69890;SDS011;57170;43.964;21.262;2023-03-01T00:39:18;72.65;;;44.83;;
69890;SDS011;57170;43.964;21.262;2023-03-01T00:41:44;82.38;;;49.95;;
69890;SDS011;57170;43.964;21.262;2023-03-01T00:44:10;72.18;;;47.25;;
69890;SDS011;57170;43.964;21.262;2023-03-01T00:46:36;80.53;;;48.15;;
69890;SDS011;57170;43.964;21.262;2023-03-01T00:49:03;76.00;;;47.30;;
69890;SDS011;57170;43.964;21.262;2023-03-01T00:51:29;73.28;;;43.40;;
69890;SDS011;57170;43.964;21.262;2023-03-01T00:53:56;75.97;;;44.20;;
69890;SDS011;57170;43.964;21.262;2023-03-01T00:56:23;67.25;;;47.42;;
69890;SDS011;57170;43.964;21.262;2023-03-01T00:58:49;63.63;;;39.45;;
69890;SDS011;57170;43.964;21.262;2023-03-01T01:01:20;72.13;;;45.90;;
69890;SDS011;57170;43.964;21.262;2023-03-01T01:03:47;74.07;;;43.20;;
69890;SDS011;57170;43.964;21.262;2023-03-01T01:06:20;74.63;;;45.03;;
69890;SDS011;57170;43.964;21.262;2023-03-01T01:08:47;75.80;;;45.08;;
69890;SDS011;57170;43.964;21.262;2023-03-01T01:11:13;70.60;;;42.72;;
69890;SDS011;57170;43.964;21.262;2023-03-01T01:13:39;60.63;;;42.30;;
69890;SDS011;57170;43.964;21.262;2023-03-01T01:16:06;70.00;;;40.05;;
69890;SDS011;57170;43.964;21.262;2023-03-01T01:18:32;68.45;;;43.45;;
69890;SDS011;57170;43.964;21.262;2023-03-01T01:21:03;67.13;;;38.42;;
69890;SDS011;57170;43.964;21.262;2023-03-01T01:23:29;68.70;;;40.20;;
69890;SDS011;57170;43.964;21.262;2023-03-01T01:25:55;69.70;;;43.03;;
69890;SDS011;57170;43.964;21.262;2023-03-01T01:28:21;68.50;;;42.45;;
69890;SDS011;57170;43.964;21.262;2023-03-01T01:30:47;65.43;;;42.05;;
69890;SDS011;57170;43.964;21.262;2023-03-01T01:33:13;67.47;;;41.38;;
69890;SDS011;57170;43.964;21.262;2023-03-01T01:35:39;65.57;;;40.83;;
69890;SDS011;57170;43.964;21.262;2023-03-01T01:38:05;63.97;;;40.15;;
69890;SDS011;57170;43.964;21.262;2023-03-01T01:40:31;71.47;;;42.03;;
69890;SDS011;57170;43.964;21.262;2023-03-01T01:42:57;71.95;;;44.80;;
69890;SDS011;57170;43.964;21.262;2023-03-01T01:45:33;69.15;;;41.65;;
69890;SDS011;57170;43.964;21.262;2023-03-01T01:48:04;70.97;;;41.17;;
69890;SDS011;57170;43.964;21.262;2023-03-01T01:50:32;68.63;;;40.83;;
69890;SDS011;57170;43.964;21.262;2023-03-01T01:53:03;71.95;;;41.58;;
69890;SDS011;57170;43.964;21.262;2023-03-01T01:55:31;65.70;;;40.40;;
69890;SDS011;57170;43.964;21.262;2023-03-01T01:57:58;63.10;;;37.67;;
69890;SDS011;57170;43.964;21.262;2023-03-01T02:00:27;68.68;;;43.25;;
69890;SDS011;57170;43.964;21.262;2023-03-01T02:03:00;65.10;;;43.72;;
69890;SDS011;57170;43.964;21.262;2023-03-01T02:08:12;67.50;;;41.10;;
69890;SDS011;57170;43.964;21.262;2023-03-01T02:10:39;66.93;;;42.35;;
69890;SDS011;57170;43.964;21.262;2023-03-01T02:13:06;70.03;;;41.67;;
69890;SDS011;57170;43.964;21.262;2023-03-01T02:15:33;75.20;;;47.25;;
69890;SDS011;57170;43.964;21.262;2023-03-01T02:17:59;77.32;;;46.22;;
69890;SDS011;57170;43.964;21.262;2023-03-01T02:22:56;63.97;;;40.40;;
69890;SDS011;57170;43.964;21.262;2023-03-01T02:25:24;70.55;;;44.75;;
69890;SDS011;57170;43.964;21.262;2023-03-01T02:30:29;72.22;;;42.85;;
69890;SDS011;57170;43.964;21.262;2023-03-01T02:32:56;71.80;;;41.90;;
69890;SDS011;57170;43.964;21.262;2023-03-01T02:35:36;69.13;;;38.72;;
69890;SDS011;57170;43.964;21.262;2023-03-01T02:38:03;68.75;;;40.83;;
69890;SDS011;57170;43.964;21.262;2023-03-01T02:40:31;79.32;;;44.33;;
69890;SDS011;57170;43.964;21.262;2023-03-01T02:42:59;77.75;;;48.63;;
69890;SDS011;57170;43.964;21.262;2023-03-01T02:45:26;63.70;;;41.53;;
69890;SDS011;57170;43.964;21.262;2023-03-01T02:47:56;70.93;;;43.25;;
69890;SDS011;57170;43.964;21.262;2023-03-01T02:50:25;76.90;;;44.58;;
69890;SDS011;57170;43.964;21.262;2023-03-01T02:55:58;69.25;;;45.65;;
69890;SDS011;57170;43.964;21.262;2023-03-01T02:58:24;81.45;;;46.75;;
69890;SDS011;57170;43.964;21.262;2023-03-01T03:00:50;74.03;;;45.72;;
69890;SDS011;57170;43.964;21.262;2023-03-01T03:03:17;71.22;;;45.90;;
69890;SDS011;57170;43.964;21.262;2023-03-01T03:05:45;80.60;;;45.22;;
69890;SDS011;57170;43.964;21.262;2023-03-01T03:08:11;85.03;;;46.55;;
69890;SDS011;57170;43.964;21.262;2023-03-01T03:10:38;69.78;;;45.00;;
69890;SDS011;57170;43.964;21.262;2023-03-01T03:13:12;81.75;;;46.95;;
69890;SDS011;57170;43.964;21.262;2023-03-01T03:15:39;86.28;;;46.88;;
69890;SDS011;57170;43.964;21.262;2023-03-01T03:18:06;82.38;;;48.28;;
69890;SDS011;57170;43.964;21.262;2023-03-01T03:20:33;86.07;;;46.05;;
69890;SDS011;57170;43.964;21.262;2023-03-01T03:22:59;83.03;;;44.78;;
69890;SDS011;57170;43.964;21.262;2023-03-01T03:25:26;90.97;;;48.83;;
69890;SDS011;57170;43.964;21.262;2023-03-01T03:27:52;81.90;;;47.95;;
69890;SDS011;57170;43.964;21.262;2023-03-01T03:30:22;87.13;;;49.85;;
69890;SDS011;57170;43.964;21.262;2023-03-01T03:32:49;76.63;;;43.53;;
69890;SDS011;57170;43.964;21.262;2023-03-01T03:35:18;73.18;;;46.30;;
69890;SDS011;57170;43.964;21.262;2023-03-01T03:37:44;76.55;;;44.25;;
69890;SDS011;57170;43.964;21.262;2023-03-01T03:40:39;81.03;;;43.50;;
69890;SDS011;57170;43.964;21.262;2023-03-01T03:43:09;73.20;;;45.45;;
69890;SDS011;57170;43.964;21.262;2023-03-01T03:45:37;78.90;;;47.30;;
69890;SDS011;57170;43.964;21.262;2023-03-01T03:48:04;78.00;;;49.13;;
69890;SDS011;57170;43.964;21.262;2023-03-01T03:50:30;75.53;;;44.58;;
69890;SDS011;57170;43.964;21.262;2023-03-01T03:52:56;77.30;;;46.05;;
69890;SDS011;57170;43.964;21.262;2023-03-01T03:55:22;83.18;;;48.05;;
69890;SDS011;57170;43.964;21.262;2023-03-01T03:57:53;67.22;;;42.83;;
69890;SDS011;57170;43.964;21.262;2023-03-01T04:00:19;80.35;;;47.78;;
69890;SDS011;57170;43.964;21.262;2023-03-01T04:02:46;80.80;;;47.95;;
69890;SDS011;57170;43.964;21.262;2023-03-01T04:05:13;81.35;;;48.47;;
69890;SDS011;57170;43.964;21.262;2023-03-01T04:07:40;87.47;;;48.50;;
69890;SDS011;57170;43.964;21.262;2023-03-01T04:10:07;81.10;;;45.08;;
69890;SDS011;57170;43.964;21.262;2023-03-01T04:12:34;78.57;;;43.33;;
69890;SDS011;57170;43.964;21.262;2023-03-01T04:15:00;79.57;;;45.45;;
69890;SDS011;57170;43.964;21.262;2023-03-01T04:17:27;78.05;;;47.22;;
69890;SDS011;57170;43.964;21.262;2023-03-01T04:19:53;86.60;;;47.38;;
69890;SDS011;57170;43.964;21.262;2023-03-01T04:22:19;80.38;;;49.90;;
69890;SDS011;57170;43.964;21.262;2023-03-01T04:24:45;91.80;;;51.20;;
69890;SDS011;57170;43.964;21.262;2023-03-01T04:27:11;75.43;;;47.75;;
69890;SDS011;57170;43.964;21.262;2023-03-01T04:29:37;75.57;;;46.03;;
69890;SDS011;57170;43.964;21.262;2023-03-01T04:32:03;90.13;;;49.30;;
69890;SDS011;57170;43.964;21.262;2023-03-01T04:34:29;78.72;;;48.08;;
69890;SDS011;57170;43.964;21.262;2023-03-01T04:36:55;84.10;;;55.33;;
69890;SDS011;57170;43.964;21.262;2023-03-01T04:39:22;82.97;;;50.22;;
69890;SDS011;57170;43.964;21.262;2023-03-01T04:41:48;82.32;;;51.53;;
69890;SDS011;57170;43.964;21.262;2023-03-01T04:44:14;81.90;;;49.25;;
69890;SDS011;57170;43.964;21.262;2023-03-01T04:46:40;92.63;;;52.67;;
69890;SDS011;57170;43.964;21.262;2023-03-01T04:49:06;85.18;;;53.90;;
69890;SDS011;57170;43.964;21.262;2023-03-01T04:51:33;88.28;;;51.20;;
69890;SDS011;57170;43.964;21.262;2023-03-01T04:53:59;85.55;;;52.13;;
69890;SDS011;57170;43.964;21.262;2023-03-01T04:56:25;77.45;;;45.55;;
69890;SDS011;57170;43.964;21.262;2023-03-01T04:58:54;95.78;;;52.97;;
69890;SDS011;57170;43.964;21.262;2023-03-01T05:01:20;82.65;;;49.63;;
69890;SDS011;57170;43.964;21.262;2023-03-01T05:03:47;89.53;;;52.22;;
69890;SDS011;57170;43.964;21.262;2023-03-01T05:06:14;92.70;;;55.15;;
69890;SDS011;57170;43.964;21.262;2023-03-01T05:08:40;96.43;;;56.58;;
69890;SDS011;57170;43.964;21.262;2023-03-01T05:11:07;92.75;;;56.58;;
69890;SDS011;57170;43.964;21.262;2023-03-01T05:13:34;88.60;;;53.13;;
69890;SDS011;57170;43.964;21.262;2023-03-01T05:16:00;82.68;;;50.33;;
69890;SDS011;57170;43.964;21.262;2023-03-01T05:18:27;81.22;;;52.13;;
69890;SDS011;57170;43.964;21.262;2023-03-01T05:20:55;98.93;;;59.53;;
69890;SDS011;57170;43.964;21.262;2023-03-01T05:23:23;97.82;;;57.85;;
69890;SDS011;57170;43.964;21.262;2023-03-01T05:25:50;91.90;;;57.08;;
69890;SDS011;57170;43.964;21.262;2023-03-01T05:28:17;94.78;;;56.05;;
69890;SDS011;57170;43.964;21.262;2023-03-01T05:30:43;91.85;;;54.72;;
69890;SDS011;57170;43.964;21.262;2023-03-01T05:33:09;90.55;;;54.80;;
69890;SDS011;57170;43.964;21.262;2023-03-01T05:35:41;86.75;;;53.25;;
69890;SDS011;57170;43.964;21.262;2023-03-01T05:38:08;84.10;;;50.90;;
69890;SDS011;57170;43.964;21.262;2023-03-01T05:40:38;81.18;;;52.38;;
69890;SDS011;57170;43.964;21.262;2023-03-01T05:43:04;89.25;;;54.85;;
69890;SDS011;57170;43.964;21.262;2023-03-01T05:45:30;87.03;;;48.78;;
69890;SDS011;57170;43.964;21.262;2023-03-01T05:47:57;87.05;;;48.92;;
69890;SDS011;57170;43.964;21.262;2023-03-01T05:50:28;83.93;;;48.70;;
69890;SDS011;57170;43.964;21.262;2023-03-01T05:52:58;86.82;;;48.25;;
69890;SDS011;57170;43.964;21.262;2023-03-01T05:55:25;89.00;;;52.75;;
69890;SDS011;57170;43.964;21.262;2023-03-01T05:57:51;94.78;;;54.83;;
69890;SDS011;57170;43.964;21.262;2023-03-01T06:00:18;99.22;;;59.00;;
69890;SDS011;57170;43.964;21.262;2023-03-01T06:02:44;88.25;;;52.47;;
69890;SDS011;57170;43.964;21.262;2023-03-01T06:05:11;85.50;;;53.15;;
69890;SDS011;57170;43.964;21.262;2023-03-01T06:07:38;92.20;;;56.53;;
69890;SDS011;57170;43.964;21.262;2023-03-01T06:10:05;99.47;;;58.22;;
69890;SDS011;57170;43.964;21.262;2023-03-01T06:12:32;90.53;;;55.17;;
69890;SDS011;57170;43.964;21.262;2023-03-01T06:14:58;89.22;;;56.78;;
69890;SDS011;57170;43.964;21.262;2023-03-01T06:17:24;85.60;;;54.22;;
69890;SDS011;57170;43.964;21.262;2023-03-01T06:19:50;75.10;;;50.20;;
69890;SDS011;57170;43.964;21.262;2023-03-01T06:22:16;82.88;;;50.65;;
69890;SDS011;57170;43.964;21.262;2023-03-01T06:24:42;83.38;;;52.63;;
69890;SDS011;57170;43.964;21.262;2023-03-01T06:27:09;85.40;;;50.53;;
69890;SDS011;57170;43.964;21.262;2023-03-01T06:29:35;80.65;;;50.28;;
69890;SDS011;57170;43.964;21.262;2023-03-01T06:32:01;88.07;;;50.38;;
69890;SDS011;57170;43.964;21.262;2023-03-01T06:34:27;102.10;;;64.70;;
69890;SDS011;57170;43.964;21.262;2023-03-01T06:36:54;139.93;;;89.78;;
69890;SDS011;57170;43.964;21.262;2023-03-01T06:39:20;90.38;;;52.72;;
69890;SDS011;57170;43.964;21.262;2023-03-01T06:41:46;88.75;;;55.05;;
69890;SDS011;57170;43.964;21.262;2023-03-01T06:44:12;116.35;;;73.45;;
69890;SDS011;57170;43.964;21.262;2023-03-01T06:46:39;100.78;;;64.15;;
69890;SDS011;57170;43.964;21.262;2023-03-01T06:49:05;96.65;;;57.03;;
69890;SDS011;57170;43.964;21.262;2023-03-01T06:51:34;86.38;;;51.83;;
69890;SDS011;57170;43.964;21.262;2023-03-01T06:54:00;89.65;;;54.58;;
69890;SDS011;57170;43.964;21.262;2023-03-01T06:56:26;82.30;;;51.97;;
69890;SDS011;57170;43.964;21.262;2023-03-01T06:58:52;86.38;;;51.40;;
69890;SDS011;57170;43.964;21.262;2023-03-01T07:01:18;85.68;;;48.33;;
69890;SDS011;57170;43.964;21.262;2023-03-01T07:03:44;78.20;;;45.72;;
69890;SDS011;57170;43.964;21.262;2023-03-01T07:06:11;72.00;;;47.03;;
69890;SDS011;57170;43.964;21.262;2023-03-01T07:08:37;82.88;;;47.53;;
69890;SDS011;57170;43.964;21.262;2023-03-01T07:11:03;75.70;;;48.38;;
69890;SDS011;57170;43.964;21.262;2023-03-01T07:13:30;89.13;;;52.15;;
69890;SDS011;57170;43.964;21.262;2023-03-01T07:15:56;87.63;;;51.65;;
69890;SDS011;57170;43.964;21.262;2023-03-01T07:18:23;89.38;;;55.00;;
69890;SDS011;57170;43.964;21.262;2023-03-01T07:20:49;96.70;;;52.83;;
69890;SDS011;57170;43.964;21.262;2023-03-01T07:23:15;93.43;;;53.30;;
69890;SDS011;57170;43.964;21.262;2023-03-01T07:25:41;78.93;;;48.20;;
69890;SDS011;57170;43.964;21.262;2023-03-01T07:28:07;86.20;;;49.03;;
69890;SDS011;57170;43.964;21.262;2023-03-01T07:30:33;71.60;;;46.47;;
69890;SDS011;57170;43.964;21.262;2023-03-01T07:32:59;78.65;;;48.65;;
69890;SDS011;57170;43.964;21.262;2023-03-01T07:35:26;78.03;;;51.50;;
69890;SDS011;57170;43.964;21.262;2023-03-01T07:37:52;78.22;;;48.58;;
69890;SDS011;57170;43.964;21.262;2023-03-01T07:40:18;79.35;;;50.17;;
69890;SDS011;57170;43.964;21.262;2023-03-01T07:42:45;79.30;;;49.70;;
69890;SDS011;57170;43.964;21.262;2023-03-01T07:45:11;78.13;;;46.85;;
69890;SDS011;57170;43.964;21.262;2023-03-01T07:47:38;83.82;;;50.35;;
69890;SDS011;57170;43.964;21.262;2023-03-01T07:50:04;78.15;;;48.72;;
69890;SDS011;57170;43.964;21.262;2023-03-01T07:52:30;73.03;;;49.30;;
69890;SDS011;57170;43.964;21.262;2023-03-01T07:54:56;79.78;;;50.80;;
69890;SDS011;57170;43.964;21.262;2023-03-01T07:57:23;72.88;;;50.53;;
69890;SDS011;57170;43.964;21.262;2023-03-01T07:59:49;76.20;;;47.08;;
69890;SDS011;57170;43.964;21.262;2023-03-01T08:02:15;70.40;;;47.63;;
69890;SDS011;57170;43.964;21.262;2023-03-01T08:04:41;60.75;;;43.13;;
69890;SDS011;57170;43.964;21.262;2023-03-01T08:07:07;58.13;;;37.97;;
69890;SDS011;57170;43.964;21.262;2023-03-01T08:09:34;59.63;;;44.85;;
69890;SDS011;57170;43.964;21.262;2023-03-01T08:12:01;51.38;;;35.13;;
69890;SDS011;57170;43.964;21.262;2023-03-01T08:14:29;64.40;;;41.67;;
69890;SDS011;57170;43.964;21.262;2023-03-01T08:16:55;51.40;;;37.72;;
69890;SDS011;57170;43.964;21.262;2023-03-01T08:19:21;46.60;;;33.45;;
69890;SDS011;57170;43.964;21.262;2023-03-01T08:21:47;40.35;;;29.77;;
69890;SDS011;57170;43.964;21.262;2023-03-01T08:24:13;36.22;;;27.77;;
69890;SDS011;57170;43.964;21.262;2023-03-01T08:26:39;41.63;;;28.48;;
69890;SDS011;57170;43.964;21.262;2023-03-01T08:29:06;41.42;;;30.45;;
69890;SDS011;57170;43.964;21.262;2023-03-01T08:31:33;36.05;;;26.85;;
69890;SDS011;57170;43.964;21.262;2023-03-01T08:34:04;42.45;;;28.63;;
69890;SDS011;57170;43.964;21.262;2023-03-01T08:36:35;41.92;;;31.35;;
69890;SDS011;57170;43.964;21.262;2023-03-01T08:39:02;39.10;;;29.48;;
69890;SDS011;57170;43.964;21.262;2023-03-01T08:41:28;43.38;;;27.80;;
69890;SDS011;57170;43.964;21.262;2023-03-01T08:43:54;44.72;;;30.45;;
69890;SDS011;57170;43.964;21.262;2023-03-01T08:46:44;41.88;;;26.95;;
69890;SDS011;57170;43.964;21.262;2023-03-01T08:49:14;43.53;;;30.40;;
69890;SDS011;57170;43.964;21.262;2023-03-01T08:51:40;47.05;;;31.83;;
69890;SDS011;57170;43.964;21.262;2023-03-01T08:54:09;45.33;;;31.25;;
69890;SDS011;57170;43.964;21.262;2023-03-01T08:56:36;41.05;;;29.00;;
69890;SDS011;57170;43.964;21.262;2023-03-01T08:59:02;37.53;;;26.92;;
69890;SDS011;57170;43.964;21.262;2023-03-01T09:01:29;41.80;;;28.35;;
69890;SDS011;57170;43.964;21.262;2023-03-01T09:03:55;36.13;;;24.98;;
69890;SDS011;57170;43.964;21.262;2023-03-01T09:06:21;44.33;;;29.17;;
69890;SDS011;57170;43.964;21.262;2023-03-01T09:08:48;38.38;;;25.58;;
69890;SDS011;57170;43.964;21.262;2023-03-01T09:11:15;40.33;;;29.77;;
69890;SDS011;57170;43.964;21.262;2023-03-01T09:13:42;41.03;;;29.25;;
69890;SDS011;57170;43.964;21.262;2023-03-01T09:16:08;37.08;;;26.13;;
69890;SDS011;57170;43.964;21.262;2023-03-01T09:18:35;34.38;;;26.55;;
69890;SDS011;57170;43.964;21.262;2023-03-01T09:21:05;38.22;;;27.77;;
69890;SDS011;57170;43.964;21.262;2023-03-01T09:23:32;40.85;;;28.85;;
69890;SDS011;57170;43.964;21.262;2023-03-01T09:25:59;37.00;;;26.73;;
69890;SDS011;57170;43.964;21.262;2023-03-01T09:28:25;41.58;;;29.23;;
69890;SDS011;57170;43.964;21.262;2023-03-01T09:30:51;35.20;;;29.15;;
69890;SDS011;57170;43.964;21.262;2023-03-01T09:33:17;33.00;;;25.33;;
69890;SDS011;57170;43.964;21.262;2023-03-01T09:35:43;33.08;;;24.67;;
69890;SDS011;57170;43.964;21.262;2023-03-01T09:38:12;29.20;;;21.33;;
69890;SDS011;57170;43.964;21.262;2023-03-01T09:40:43;27.73;;;20.45;;
69890;SDS011;57170;43.964;21.262;2023-03-01T09:43:23;30.90;;;22.90;;
69890;SDS011;57170;43.964;21.262;2023-03-01T09:45:51;27.17;;;21.80;;
69890;SDS011;57170;43.964;21.262;2023-03-01T09:48:20;22.10;;;15.90;;
69890;SDS011;57170;43.964;21.262;2023-03-01T09:50:48;21.40;;;16.00;;
69890;SDS011;57170;43.964;21.262;2023-03-01T09:53:22;21.73;;;15.90;;
69890;SDS011;57170;43.964;21.262;2023-03-01T09:56:05;28.08;;;18.00;;
69890;SDS011;57170;43.964;21.262;2023-03-01T09:58:46;29.83;;;20.38;;
69890;SDS011;57170;43.964;21.262;2023-03-01T10:03:41;24.15;;;18.30;;
69890;SDS011;57170;43.964;21.262;2023-03-01T10:11:18;28.27;;;19.08;;
69890;SDS011;57170;43.964;21.262;2023-03-01T10:13:55;28.23;;;20.80;;
69890;SDS011;57170;43.964;21.262;2023-03-01T10:16:26;13.77;;;10.43;;
69890;SDS011;57170;43.964;21.262;2023-03-01T10:18:55;17.65;;;13.43;;
69890;SDS011;57170;43.964;21.262;2023-03-01T10:21:21;12.00;;;9.23;;
69890;SDS011;57170;43.964;21.262;2023-03-01T10:23:51;10.63;;;7.53;;
69890;SDS011;57170;43.964;21.262;2023-03-01T10:29:04;7.03;;;5.35;;
69890;SDS011;57170;43.964;21.262;2023-03-01T10:31:38;7.22;;;5.28;;
69890;SDS011;57170;43.964;21.262;2023-03-01T10:36:40;6.93;;;4.82;;
69890;SDS011;57170;43.964;21.262;2023-03-01T10:39:17;8.93;;;4.75;;
69890;SDS011;57170;43.964;21.262;2023-03-01T10:42:27;8.32;;;4.43;;
69890;SDS011;57170;43.964;21.262;2023-03-01T10:44:46;5.38;;;3.97;;
69890;SDS011;57170;43.964;21.262;2023-03-01T10:47:21;8.80;;;5.63;;
69890;SDS011;57170;43.964;21.262;2023-03-01T10:49:54;7.63;;;5.10;;
69890;SDS011;57170;43.964;21.262;2023-03-01T10:52:22;8.55;;;5.88;;
69890;SDS011;57170;43.964;21.262;2023-03-01T10:54:53;6.15;;;4.95;;
69890;SDS011;57170;43.964;21.262;2023-03-01T10:57:37;8.48;;;5.97;;
69890;SDS011;57170;43.964;21.262;2023-03-01T11:02:29;8.68;;;5.80;;
69890;SDS011;57170;43.964;21.262;2023-03-01T11:07:23;11.10;;;8.60;;
69890;SDS011;57170;43.964;21.262;2023-03-01T11:09:50;14.70;;;9.77;;
69890;SDS011;57170;43.964;21.262;2023-03-01T11:12:16;14.05;;;10.07;;
69890;SDS011;57170;43.964;21.262;2023-03-01T11:14:55;8.65;;;7.32;;
69890;SDS011;57170;43.964;21.262;2023-03-01T11:17:27;9.40;;;6.18;;
69890;SDS011;57170;43.964;21.262;2023-03-01T11:20:02;7.15;;;4.70;;
69890;SDS011;57170;43.964;21.262;2023-03-01T11:22:31;6.68;;;4.75;;
69890;SDS011;57170;43.964;21.262;2023-03-01T11:24:58;7.03;;;5.10;;
69890;SDS011;57170;43.964;21.262;2023-03-01T11:27:26;7.00;;;4.32;;
69890;SDS011;57170;43.964;21.262;2023-03-01T11:29:55;5.13;;;3.40;;
69890;SDS011;57170;43.964;21.262;2023-03-01T11:32:24;3.92;;;3.10;;
69890;SDS011;57170;43.964;21.262;2023-03-01T11:34:59;6.65;;;4.80;;
69890;SDS011;57170;43.964;21.262;2023-03-01T11:39:58;6.72;;;4.55;;
69890;SDS011;57170;43.964;21.262;2023-03-01T11:42:30;5.95;;;4.70;;
69890;SDS011;57170;43.964;21.262;2023-03-01T11:45:02;6.43;;;4.43;;
69890;SDS011;57170;43.964;21.262;2023-03-01T11:55:30;6.70;;;4.45;;
69890;SDS011;57170;43.964;21.262;2023-03-01T12:03:40;7.00;;;5.20;;
69890;SDS011;57170;43.964;21.262;2023-03-01T12:11:43;6.90;;;4.78;;
69890;SDS011;57170;43.964;21.262;2023-03-01T12:37:59;6.35;;;4.20;;
69890;SDS011;57170;43.964;21.262;2023-03-01T12:40:31;6.18;;;4.65;;
69890;SDS011;57170;43.964;21.262;2023-03-01T12:50:40;7.55;;;5.38;;
69890;SDS011;57170;43.964;21.262;2023-03-01T12:53:10;7.60;;;5.15;;
69890;SDS011;57170;43.964;21.262;2023-03-01T12:55:42;6.78;;;4.70;;
69890;SDS011;57170;43.964;21.262;2023-03-01T12:58:26;5.32;;;2.70;;
69890;SDS011;57170;43.964;21.262;2023-03-01T13:01:00;6.32;;;3.90;;
69890;SDS011;57170;43.964;21.262;2023-03-01T13:03:31;4.90;;;3.90;;
69890;SDS011;57170;43.964;21.262;2023-03-01T13:06:11;5.10;;;3.60;;
69890;SDS011;57170;43.964;21.262;2023-03-01T13:11:21;6.32;;;4.95;;
69890;SDS011;57170;43.964;21.262;2023-03-01T13:13:47;7.78;;;4.18;;
69890;SDS011;57170;43.964;21.262;2023-03-01T13:16:21;7.30;;;4.60;;
69890;SDS011;57170;43.964;21.262;2023-03-01T13:18:48;6.82;;;4.05;;
69890;SDS011;57170;43.964;21.262;2023-03-01T13:21:14;8.48;;;5.18;;
69890;SDS011;57170;43.964;21.262;2023-03-01T13:23:54;7.95;;;5.13;;
69890;SDS011;57170;43.964;21.262;2023-03-01T13:26:20;8.52;;;5.38;;
69890;SDS011;57170;43.964;21.262;2023-03-01T13:36:05;7.10;;;5.22;;
69890;SDS011;57170;43.964;21.262;2023-03-01T13:41:47;7.93;;;5.80;;
69890;SDS011;57170;43.964;21.262;2023-03-01T13:49:25;8.13;;;4.63;;
69890;SDS011;57170;43.964;21.262;2023-03-01T13:51:52;9.77;;;5.40;;
69890;SDS011;57170;43.964;21.262;2023-03-01T13:54:23;10.27;;;5.43;;
69890;SDS011;57170;43.964;21.262;2023-03-01T13:56:50;8.20;;;5.60;;
69890;SDS011;57170;43.964;21.262;2023-03-01T13:59:18;5.95;;;3.55;;
69890;SDS011;57170;43.964;21.262;2023-03-01T14:01:44;7.35;;;4.50;;
69890;SDS011;57170;43.964;21.262;2023-03-01T14:04:38;9.18;;;5.32;;
69890;SDS011;57170;43.964;21.262;2023-03-01T14:07:18;7.55;;;5.20;;
69890;SDS011;57170;43.964;21.262;2023-03-01T14:09:45;9.68;;;6.13;;
69890;SDS011;57170;43.964;21.262;2023-03-01T14:20:11;8.20;;;5.53;;
69890;SDS011;57170;43.964;21.262;2023-03-01T14:22:37;7.30;;;6.18;;
69890;SDS011;57170;43.964;21.262;2023-03-01T14:25:17;10.27;;;5.90;;
69890;SDS011;57170;43.964;21.262;2023-03-01T14:27:44;9.30;;;7.22;;
69890;SDS011;57170;43.964;21.262;2023-03-01T14:32:42;8.32;;;4.55;;
69890;SDS011;57170;43.964;21.262;2023-03-01T14:35:19;9.82;;;6.82;;
69890;SDS011;57170;43.964;21.262;2023-03-01T14:37:45;8.27;;;5.68;;
69890;SDS011;57170;43.964;21.262;2023-03-01T14:40:24;8.32;;;5.65;;
69890;SDS011;57170;43.964;21.262;2023-03-01T14:42:50;19.13;;;7.78;;
69890;SDS011;57170;43.964;21.262;2023-03-01T14:45:17;10.18;;;5.45;;
69890;SDS011;57170;43.964;21.262;2023-03-01T14:47:43;9.10;;;5.63;;
69890;SDS011;57170;43.964;21.262;2023-03-01T14:52:40;11.18;;;8.38;;
69890;SDS011;57170;43.964;21.262;2023-03-01T14:55:21;9.90;;;6.82;;
69890;SDS011;57170;43.964;21.262;2023-03-01T14:57:48;8.55;;;6.03;;
69890;SDS011;57170;43.964;21.262;2023-03-01T15:02:44;11.85;;;7.90;;
69890;SDS011;57170;43.964;21.262;2023-03-01T15:05:13;9.98;;;6.90;;
69890;SDS011;57170;43.964;21.262;2023-03-01T15:07:40;9.18;;;5.40;;
69890;SDS011;57170;43.964;21.262;2023-03-01T15:10:12;9.63;;;6.25;;
69890;SDS011;57170;43.964;21.262;2023-03-01T15:12:40;9.55;;;6.15;;
69890;SDS011;57170;43.964;21.262;2023-03-01T15:18:16;9.35;;;7.10;;
69890;SDS011;57170;43.964;21.262;2023-03-01T15:20:43;10.88;;;7.78;;
69890;SDS011;57170;43.964;21.262;2023-03-01T15:23:28;12.77;;;7.65;;
69890;SDS011;57170;43.964;21.262;2023-03-01T15:25:55;10.23;;;7.05;;
69890;SDS011;57170;43.964;21.262;2023-03-01T15:28:24;6.43;;;4.97;;
69890;SDS011;57170;43.964;21.262;2023-03-01T15:30:58;8.95;;;6.82;;
69890;SDS011;57170;43.964;21.262;2023-03-01T15:35:54;12.02;;;8.30;;
69890;SDS011;57170;43.964;21.262;2023-03-01T15:40:50;11.82;;;8.52;;
69890;SDS011;57170;43.964;21.262;2023-03-01T15:46:01;13.05;;;7.47;;
69890;SDS011;57170;43.964;21.262;2023-03-01T15:48:27;10.43;;;7.05;;
69890;SDS011;57170;43.964;21.262;2023-03-01T15:50:56;12.52;;;8.18;;
69890;SDS011;57170;43.964;21.262;2023-03-01T15:53:23;14.98;;;8.93;;
69890;SDS011;57170;43.964;21.262;2023-03-01T15:55:49;9.60;;;6.38;;
69890;SDS011;57170;43.964;21.262;2023-03-01T15:58:17;12.57;;;7.78;;
69890;SDS011;57170;43.964;21.262;2023-03-01T16:00:44;12.75;;;7.93;;
69890;SDS011;57170;43.964;21.262;2023-03-01T16:03:10;13.45;;;8.85;;
69890;SDS011;57170;43.964;21.262;2023-03-01T16:05:37;14.93;;;10.05;;
69890;SDS011;57170;43.964;21.262;2023-03-01T16:08:04;26.92;;;16.88;;
69890;SDS011;57170;43.964;21.262;2023-03-01T16:10:34;11.30;;;8.63;;
69890;SDS011;57170;43.964;21.262;2023-03-01T16:13:00;11.93;;;7.72;;
69890;SDS011;57170;43.964;21.262;2023-03-01T16:15:30;13.88;;;8.85;;
69890;SDS011;57170;43.964;21.262;2023-03-01T16:17:57;16.70;;;14.63;;
69890;SDS011;57170;43.964;21.262;2023-03-01T16:20:24;11.40;;;9.20;;
69890;SDS011;57170;43.964;21.262;2023-03-01T16:22:50;11.65;;;8.80;;
69890;SDS011;57170;43.964;21.262;2023-03-01T16:25:17;14.13;;;10.25;;
69890;SDS011;57170;43.964;21.262;2023-03-01T16:27:44;12.00;;;7.65;;